createdAt,value
2022-07-28T00:00:16.457Z,67.15
2022-07-28T00:02:44.057Z,103.03
2022-07-28T00:05:12.341Z,66.20
2022-07-28T00:07:39.857Z,100.45
2022-07-28T00:10:08.149Z,125.32
2022-07-28T00:12:37.085Z,119.00
2022-07-28T00:15:05.392Z,104.93
2022-07-28T00:17:32.888Z,101.80
2022-07-28T00:20:00.475Z,109.60
2022-07-28T00:22:27.967Z,109.38
2022-07-28T00:24:55.449Z,108.95
2022-07-28T00:27:23.042Z,115.78
2022-07-28T00:29:52.066Z,126.30
2022-07-28T00:32:20.396Z,109.13
2022-07-28T00:34:48.223Z,119.32
2022-07-28T00:37:15.767Z,128.75
2022-07-28T00:39:43.403Z,126.72
2022-07-28T00:42:12.206Z,120.45
2022-07-28T00:44:42.067Z,128.73
2022-07-28T00:47:11.831Z,110.82
2022-07-28T00:49:39.971Z,77.55
2022-07-28T00:52:10.012Z,68.70
2022-07-28T00:54:37.765Z,72.65
2022-07-28T00:57:05.768Z,108.70
2022-07-28T00:59:33.922Z,130.52
2022-07-28T01:02:02.885Z,130.57
2022-07-28T01:04:32.022Z,140.88
2022-07-28T01:07:09.556Z,67.13
2022-07-28T01:09:48.573Z,52.67
2022-07-28T01:12:27.840Z,103.10
2022-07-28T01:15:02.480Z,55.35
2022-07-28T01:17:36.147Z,72.88
2022-07-28T01:20:14.215Z,76.13
2022-07-28T01:22:46.695Z,95.75
2022-07-28T01:25:22.538Z,113.60
2022-07-28T01:27:59.169Z,114.95
2022-07-28T01:30:35.316Z,111.50
2022-07-28T01:33:10.733Z,110.13
2022-07-28T01:35:48.517Z,77.82
2022-07-28T01:38:19.413Z,73.90
2022-07-28T01:40:48.238Z,44.60
2022-07-28T01:43:21.405Z,48.75
2022-07-28T01:45:50.290Z,88.28
2022-07-28T01:48:19.990Z,77.93
2022-07-28T01:50:49.839Z,42.13
2022-07-28T01:53:18.756Z,44.95
2022-07-28T01:55:48.027Z,40.22
2022-07-28T01:58:18.108Z,54.78
2022-07-28T02:00:51.284Z,45.72
2022-07-28T02:03:22.386Z,138.45
2022-07-28T02:05:53.547Z,160.32
2022-07-28T02:08:22.836Z,150.02
2022-07-28T02:11:09.207Z,121.30
2022-07-28T02:13:40.168Z,122.20
2022-07-28T02:16:10.929Z,68.68
2022-07-28T02:18:40.182Z,37.67
2022-07-28T02:21:08.831Z,37.58
2022-07-28T02:23:38.630Z,30.55
2022-07-28T02:26:10.584Z,30.27
2022-07-28T02:28:40.148Z,29.25
2022-07-28T02:31:14.401Z,32.83
2022-07-28T02:33:58.479Z,32.17
2022-07-28T02:36:30.087Z,31.60
2022-07-28T02:39:07.073Z,29.63
2022-07-28T02:41:39.827Z,30.00
2022-07-28T02:44:15.792Z,26.40
2022-07-28T02:46:47.478Z,32.63
2022-07-28T02:49:19.007Z,30.35
2022-07-28T02:51:48.040Z,29.15
2022-07-28T02:54:18.428Z,21.90
2022-07-28T02:56:53.544Z,32.83
2022-07-28T02:59:22.827Z,34.35
2022-07-28T03:01:52.969Z,29.40
2022-07-28T03:04:41.060Z,22.50
2022-07-28T03:07:11.012Z,20.70
2022-07-28T03:09:40.415Z,21.38
2022-07-28T03:12:08.486Z,22.92
2022-07-28T03:14:36.109Z,23.38
2022-07-28T03:17:06.181Z,23.60
2022-07-28T03:19:35.215Z,22.35
2022-07-28T03:22:02.880Z,21.67
2022-07-28T03:24:33.308Z,20.85
2022-07-28T03:27:05.379Z,15.55
2022-07-28T03:29:34.225Z,15.80
2022-07-28T03:32:02.021Z,16.45
2022-07-28T03:34:30.950Z,17.40
2022-07-28T03:37:03.819Z,17.30
2022-07-28T03:39:37.035Z,15.05
2022-07-28T03:42:05.068Z,15.00
2022-07-28T03:44:33.121Z,18.85
2022-07-28T03:47:00.671Z,15.38
2022-07-28T03:49:28.138Z,13.82
2022-07-28T03:51:56.951Z,18.08
2022-07-28T03:54:24.747Z,16.30
2022-07-28T03:56:52.242Z,19.50
2022-07-28T03:59:20.380Z,14.63
2022-07-28T04:01:48.021Z,12.85
2022-07-28T04:04:16.045Z,14.50
2022-07-28T04:06:43.920Z,26.13
2022-07-28T04:09:12.748Z,24.45
2022-07-28T04:11:40.237Z,26.58
2022-07-28T04:14:10.058Z,25.30
2022-07-28T04:16:40.798Z,27.50
2022-07-28T04:19:08.306Z,32.63
2022-07-28T04:21:35.897Z,31.13
2022-07-28T04:24:03.356Z,31.45
2022-07-28T04:26:32.181Z,20.40
2022-07-28T04:28:59.683Z,19.45
2022-07-28T04:31:31.298Z,31.10
2022-07-28T04:33:59.980Z,31.70
2022-07-28T04:36:27.592Z,29.25
2022-07-28T04:38:56.610Z,21.35
2022-07-28T04:41:24.153Z,28.08
2022-07-28T04:43:52.984Z,29.75
2022-07-28T04:46:20.523Z,7.07
2022-07-28T04:48:48.136Z,6.05
2022-07-28T04:51:15.671Z,7.93
2022-07-28T04:53:43.257Z,5.88
2022-07-28T04:56:11.082Z,5.78
2022-07-28T04:58:38.558Z,5.78
2022-07-28T05:01:07.915Z,6.00
2022-07-28T05:03:36.528Z,5.28
2022-07-28T05:06:04.923Z,7.00
2022-07-28T05:08:32.405Z,5.80
2022-07-28T05:10:59.897Z,5.35
2022-07-28T05:13:33.413Z,5.95
2022-07-28T05:16:02.378Z,4.95
2022-07-28T05:18:31.218Z,8.00
2022-07-28T05:20:58.726Z,8.25
2022-07-28T05:23:26.184Z,8.88
2022-07-28T05:25:54.425Z,7.95
2022-07-28T05:28:21.926Z,10.02
2022-07-28T05:30:49.541Z,11.13
2022-07-28T05:33:17.439Z,9.10
2022-07-28T05:35:53.418Z,7.97
2022-07-28T05:38:21.236Z,9.13
2022-07-28T05:40:48.851Z,11.35
2022-07-28T05:43:16.747Z,6.47
2022-07-28T05:45:44.342Z,6.13
2022-07-28T05:48:11.987Z,6.80
2022-07-28T05:50:39.853Z,6.90
2022-07-28T05:53:08.747Z,7.35
2022-07-28T05:55:36.279Z,6.60
2022-07-28T05:58:24.454Z,8.07
2022-07-28T06:00:52.314Z,10.68
2022-07-28T06:03:19.876Z,7.40
2022-07-28T06:06:14.392Z,8.43
2022-07-28T06:08:36.383Z,9.40
2022-07-28T06:11:09.219Z,8.52
2022-07-28T06:13:37.075Z,8.45
2022-07-28T06:16:08.443Z,13.90
2022-07-28T06:18:38.709Z,9.27
2022-07-28T06:21:06.250Z,6.32
2022-07-28T06:23:33.787Z,7.65
2022-07-28T06:26:02.658Z,12.35
2022-07-28T06:28:30.166Z,13.25
2022-07-28T06:30:57.682Z,8.93
2022-07-28T06:33:25.324Z,8.13
2022-07-28T06:35:52.838Z,11.55
2022-07-28T06:38:21.116Z,7.97
2022-07-28T06:40:48.867Z,9.95
2022-07-28T06:43:17.741Z,8.85
2022-07-28T06:45:45.943Z,12.52
2022-07-28T06:48:14.136Z,9.85
2022-07-28T06:50:42.976Z,8.57
2022-07-28T06:53:10.602Z,10.80
2022-07-28T06:55:38.828Z,7.95
2022-07-28T06:58:09.127Z,8.82
2022-07-28T07:00:38.188Z,8.68
2022-07-28T07:03:09.589Z,8.13
2022-07-28T07:05:37.468Z,10.38
2022-07-28T07:08:05.379Z,7.35
2022-07-28T07:10:32.928Z,7.47
2022-07-28T07:13:00.424Z,9.52
2022-07-28T07:15:28.260Z,11.45
2022-07-28T07:17:57.120Z,9.15
2022-07-28T07:20:24.642Z,9.98
2022-07-28T07:22:52.193Z,8.15
2022-07-28T07:25:20.788Z,8.85
2022-07-28T07:27:48.429Z,14.18
2022-07-28T07:30:17.072Z,15.40
2022-07-28T07:32:44.975Z,16.63
2022-07-28T07:35:13.902Z,12.82
2022-07-28T07:37:41.848Z,14.73
2022-07-28T07:40:10.329Z,14.38
2022-07-28T07:42:37.935Z,11.18
2022-07-28T07:45:06.469Z,9.05
2022-07-28T07:47:34.037Z,12.38
2022-07-28T07:50:04.187Z,13.68
2022-07-28T07:52:33.689Z,12.93
2022-07-28T07:55:01.214Z,13.80
2022-07-28T07:57:29.705Z,13.00
2022-07-28T07:59:57.293Z,10.68
2022-07-28T08:02:24.830Z,9.88
2022-07-28T08:04:52.433Z,9.93
2022-07-28T08:07:22.013Z,10.38
2022-07-28T08:09:51.172Z,7.72
2022-07-28T08:12:25.095Z,9.43
2022-07-28T08:14:53.190Z,9.82
2022-07-28T08:17:25.551Z,9.93
2022-07-28T08:19:53.656Z,10.20
2022-07-28T08:22:21.170Z,10.43
2022-07-28T08:24:48.688Z,8.43
2022-07-28T08:27:17.705Z,11.32
2022-07-28T08:29:45.387Z,9.10
2022-07-28T08:32:12.992Z,9.27
2022-07-28T08:34:40.556Z,8.68
2022-07-28T08:37:08.523Z,10.68
2022-07-28T08:39:37.101Z,10.02
2022-07-28T08:42:07.101Z,8.32
2022-07-28T08:44:42.769Z,9.77
2022-07-28T08:47:12.171Z,10.68
2022-07-28T08:49:42.808Z,10.88
2022-07-28T08:52:12.416Z,11.57
2022-07-28T08:54:43.607Z,11.77
2022-07-28T08:57:17.040Z,10.75
2022-07-28T08:59:46.309Z,11.68
2022-07-28T09:02:14.168Z,9.15
2022-07-28T09:04:43.954Z,9.10
2022-07-28T09:07:12.120Z,8.80
2022-07-28T09:09:40.036Z,11.65
2022-07-28T09:12:08.274Z,10.52
2022-07-28T09:14:36.017Z,10.13
2022-07-28T09:17:05.457Z,9.63
2022-07-28T09:19:34.403Z,9.75
2022-07-28T09:22:04.376Z,10.10
2022-07-28T09:24:37.094Z,8.63
2022-07-28T09:27:07.754Z,9.13
2022-07-28T09:29:36.130Z,7.85
2022-07-28T09:32:05.483Z,9.35
2022-07-28T09:34:41.574Z,9.00
2022-07-28T09:37:17.541Z,9.15
2022-07-28T09:39:47.968Z,7.95
2022-07-28T09:42:15.967Z,9.80
2022-07-28T09:45:00.060Z,9.43
2022-07-28T09:47:33.269Z,9.43
2022-07-28T09:50:01.042Z,9.63
2022-07-28T09:52:30.323Z,8.30
2022-07-28T09:55:01.946Z,9.95
2022-07-28T09:57:30.921Z,8.70
2022-07-28T10:00:01.469Z,7.57
2022-07-28T10:02:32.504Z,8.93
2022-07-28T10:05:01.437Z,8.52
2022-07-28T10:07:30.120Z,10.10
2022-07-28T10:09:59.060Z,8.63
2022-07-28T10:12:27.878Z,10.10
2022-07-28T10:14:56.854Z,7.18
2022-07-28T10:17:26.319Z,7.60
2022-07-28T10:19:57.659Z,8.60
2022-07-28T10:22:28.437Z,8.65
2022-07-28T10:24:57.513Z,8.02
2022-07-28T10:27:25.962Z,7.43
2022-07-28T10:29:59.358Z,7.65
2022-07-28T10:32:29.493Z,9.40
2022-07-28T10:35:02.545Z,7.60
2022-07-28T10:37:32.685Z,7.15
2022-07-28T10:40:10.061Z,6.85
2022-07-28T10:42:39.556Z,8.23
2022-07-28T10:45:10.303Z,8.63
2022-07-28T10:47:37.864Z,8.25
2022-07-28T10:50:08.535Z,8.02
2022-07-28T10:52:47.386Z,8.38
2022-07-28T10:55:21.818Z,7.43
2022-07-28T10:58:02.034Z,9.25
2022-07-28T11:00:55.447Z,5.90
2022-07-28T11:03:39.972Z,8.00
2022-07-28T11:06:30.121Z,9.80
2022-07-28T11:08:58.747Z,8.88
2022-07-28T11:11:45.941Z,7.82
2022-07-28T11:14:37.169Z,8.73
2022-07-28T11:17:24.046Z,9.13
2022-07-28T11:22:45.590Z,6.25
2022-07-28T11:25:21.084Z,9.05
2022-07-28T11:28:05.843Z,7.35
2022-07-28T11:30:55.633Z,7.25
2022-07-28T11:33:25.086Z,6.63
2022-07-28T11:35:57.977Z,7.82
2022-07-28T11:38:27.888Z,7.10
2022-07-28T11:40:57.377Z,9.80
2022-07-28T11:43:37.466Z,7.63
2022-07-28T11:46:34.435Z,9.50
2022-07-28T11:49:27.778Z,8.93
2022-07-28T11:52:09.787Z,7.60
2022-07-28T11:54:40.671Z,8.57
2022-07-28T11:57:10.847Z,7.22
2022-07-28T12:00:00.165Z,10.30
2022-07-28T12:02:31.573Z,11.95
2022-07-28T12:05:23.634Z,12.32
2022-07-28T12:07:53.590Z,9.48
2022-07-28T12:10:53.966Z,9.38
2022-07-28T12:13:28.561Z,6.82
2022-07-28T12:15:56.145Z,8.68
2022-07-28T12:18:24.758Z,9.73
2022-07-28T12:20:53.743Z,8.73
2022-07-28T12:23:38.732Z,8.15
2022-07-28T12:26:07.653Z,7.97
2022-07-28T12:28:37.701Z,8.90
2022-07-28T12:31:12.430Z,8.80
2022-07-28T12:33:40.207Z,8.65
2022-07-28T12:36:09.259Z,8.77
2022-07-28T12:38:37.047Z,8.80
2022-07-28T12:41:16.468Z,7.55
2022-07-28T12:43:51.224Z,9.45
2022-07-28T12:46:23.672Z,8.15
2022-07-28T12:48:56.668Z,8.98
2022-07-28T12:51:35.573Z,8.93
2022-07-28T12:54:04.379Z,9.65
2022-07-28T12:56:33.719Z,7.05
2022-07-28T12:59:06.314Z,10.20
2022-07-28T13:01:51.351Z,8.68
2022-07-28T13:04:40.568Z,9.50
2022-07-28T13:07:10.644Z,8.40
2022-07-28T13:09:41.642Z,9.35
2022-07-28T13:12:21.835Z,8.02
2022-07-28T13:14:52.672Z,8.48
2022-07-28T13:17:22.047Z,7.78
2022-07-28T13:19:50.658Z,10.63
2022-07-28T13:22:27.604Z,9.40
2022-07-28T13:24:56.895Z,9.93
2022-07-28T13:27:25.930Z,8.52
2022-07-28T13:29:53.960Z,7.95
2022-07-28T13:32:21.587Z,9.00
2022-07-28T13:34:49.210Z,8.93
2022-07-28T13:37:16.782Z,8.82
2022-07-28T13:39:44.359Z,10.48
2022-07-28T13:42:11.977Z,9.15
2022-07-28T13:44:42.177Z,10.77
2022-07-28T13:47:10.091Z,12.20
2022-07-28T13:49:38.186Z,10.40
2022-07-28T13:52:12.927Z,8.65
2022-07-28T13:54:41.076Z,13.18
2022-07-28T13:57:08.648Z,9.05
2022-07-28T13:59:37.900Z,6.13
2022-07-28T14:02:15.050Z,5.70
2022-07-28T14:04:45.945Z,7.50
2022-07-28T14:07:20.562Z,11.15
2022-07-28T14:09:50.185Z,8.20
2022-07-28T14:12:17.754Z,7.97
2022-07-28T14:14:48.433Z,7.63
2022-07-28T14:17:50.232Z,8.90
2022-07-28T14:20:11.304Z,8.88
2022-07-28T14:22:38.908Z,8.70
2022-07-28T14:25:07.402Z,9.20
2022-07-28T14:27:35.168Z,10.73
2022-07-28T14:30:04.155Z,9.05
2022-07-28T14:32:33.565Z,8.80
2022-07-28T14:35:02.337Z,9.02
2022-07-28T14:37:47.103Z,9.10
2022-07-28T14:40:18.527Z,10.93
2022-07-28T14:42:46.031Z,9.45
2022-07-28T14:45:14.245Z,8.93
2022-07-28T14:47:45.348Z,9.93
2022-07-28T14:50:13.518Z,10.60
2022-07-28T14:52:44.752Z,6.57
2022-07-28T14:55:12.960Z,10.68
2022-07-28T14:57:52.107Z,10.18
2022-07-28T15:00:23.394Z,9.77
2022-07-28T15:02:52.916Z,5.60
2022-07-28T15:05:21.088Z,10.00
2022-07-28T15:07:49.370Z,6.95
2022-07-28T15:10:17.124Z,9.38
2022-07-28T15:12:44.804Z,10.27
2022-07-28T15:15:12.866Z,8.02
2022-07-28T15:17:40.522Z,10.18
2022-07-28T15:20:11.373Z,10.05
2022-07-28T15:22:38.929Z,10.95
2022-07-28T15:25:07.176Z,10.68
2022-07-28T15:27:34.657Z,5.22
2022-07-28T15:30:03.416Z,11.27
2022-07-28T15:32:31.622Z,11.10
2022-07-28T15:34:59.670Z,10.75
2022-07-28T15:37:28.548Z,12.40
2022-07-28T15:39:56.112Z,9.73
2022-07-28T15:42:23.679Z,7.97
2022-07-28T15:44:53.159Z,11.23
2022-07-28T15:47:21.998Z,10.43
2022-07-28T15:49:49.471Z,11.73
2022-07-28T15:52:17.004Z,9.70
2022-07-28T15:54:47.716Z,10.20
2022-07-28T15:57:15.210Z,10.80
2022-07-28T15:59:50.100Z,8.57
2022-07-28T16:02:19.291Z,6.18
2022-07-28T16:04:53.344Z,7.85
2022-07-28T16:07:23.289Z,5.45
2022-07-28T16:09:54.629Z,6.88
2022-07-28T16:12:22.774Z,6.25
2022-07-28T16:14:54.083Z,6.00
2022-07-28T16:17:22.534Z,4.72
2022-07-28T16:19:51.185Z,4.97
2022-07-28T16:22:18.919Z,5.18
2022-07-28T16:24:46.533Z,9.10
2022-07-28T16:27:15.752Z,5.85
2022-07-28T16:29:43.289Z,5.88
2022-07-28T16:32:11.169Z,7.70
2022-07-28T16:34:38.731Z,7.85
2022-07-28T16:37:06.366Z,5.18
2022-07-28T16:39:34.246Z,5.93
2022-07-28T16:42:02.753Z,5.68
2022-07-28T16:44:32.184Z,7.22
2022-07-28T16:46:59.798Z,5.80
2022-07-28T16:49:27.650Z,4.03
2022-07-28T16:51:56.049Z,9.30
2022-07-28T16:54:23.873Z,5.82
2022-07-28T16:56:51.787Z,5.40
2022-07-28T16:59:19.319Z,5.22
2022-07-28T17:01:48.256Z,9.40
2022-07-28T17:04:17.366Z,7.53
2022-07-28T17:06:45.289Z,7.05
2022-07-28T17:09:15.826Z,7.97
2022-07-28T17:11:43.772Z,7.00
2022-07-28T17:14:12.553Z,6.43
2022-07-28T17:16:40.338Z,8.55
2022-07-28T17:19:09.554Z,8.20
2022-07-28T17:21:37.392Z,3.90
2022-07-28T17:24:05.866Z,9.02
2022-07-28T17:29:22.421Z,5.35
2022-07-28T17:31:50.221Z,4.50
2022-07-28T17:34:19.415Z,5.00
2022-07-28T17:36:48.049Z,5.68
2022-07-28T17:39:15.511Z,7.80
2022-07-28T17:41:43.039Z,10.65
2022-07-28T17:44:10.509Z,9.48
2022-07-28T17:46:38.624Z,7.28
2022-07-28T17:49:07.901Z,5.60
2022-07-28T17:51:37.430Z,5.00
2022-07-28T17:54:05.402Z,5.55
2022-07-28T17:56:36.505Z,7.13
2022-07-28T17:59:05.943Z,6.40
2022-07-28T18:01:33.502Z,5.00
2022-07-28T18:04:01.337Z,6.63
2022-07-28T18:06:34.337Z,3.80
2022-07-28T18:09:06.332Z,4.80
2022-07-28T18:11:35.965Z,6.72
2022-07-28T18:14:05.577Z,8.15
2022-07-28T18:16:34.052Z,3.67
2022-07-28T18:19:02.155Z,5.78
2022-07-28T18:21:29.860Z,4.05
2022-07-28T18:23:57.397Z,4.93
2022-07-28T18:26:26.288Z,4.15
2022-07-28T18:28:53.770Z,4.18
2022-07-28T18:31:21.757Z,3.75
2022-07-28T18:33:49.350Z,4.05
2022-07-28T18:36:16.848Z,5.03
2022-07-28T18:38:44.323Z,3.50
2022-07-28T18:41:11.785Z,3.50
2022-07-28T18:43:40.583Z,3.10
2022-07-28T18:46:08.344Z,3.45
2022-07-28T18:48:35.900Z,3.95
2022-07-28T18:51:03.383Z,5.45
2022-07-28T18:53:30.906Z,4.45
2022-07-28T18:55:59.127Z,3.53
2022-07-28T18:58:26.663Z,4.97
2022-07-28T19:00:55.512Z,4.53
2022-07-28T19:03:23.074Z,4.00
2022-07-28T19:05:53.678Z,4.35
2022-07-28T19:08:21.511Z,4.85
2022-07-28T19:10:49.336Z,3.67
2022-07-28T19:13:16.846Z,3.80
2022-07-28T19:15:44.511Z,4.53
2022-07-28T19:18:13.412Z,4.70
2022-07-28T19:20:41.237Z,4.43
2022-07-28T19:23:08.751Z,5.70
2022-07-28T19:25:37.599Z,7.95
2022-07-28T19:28:05.404Z,5.47
2022-07-28T19:30:33.090Z,4.90
2022-07-28T19:33:00.787Z,4.30
2022-07-28T19:35:30.225Z,6.30
2022-07-28T19:37:59.882Z,6.25
2022-07-28T19:40:29.615Z,7.38
2022-07-28T19:42:57.444Z,7.25
2022-07-28T19:45:25.179Z,8.07
2022-07-28T19:47:54.459Z,7.40
2022-07-28T19:50:22.260Z,9.07
2022-07-28T19:52:51.239Z,6.13
2022-07-28T19:55:18.890Z,6.22
2022-07-28T19:57:47.141Z,6.65
2022-07-28T20:00:17.231Z,7.38
2022-07-28T20:02:45.729Z,6.43
2022-07-28T20:05:13.543Z,4.75
2022-07-28T20:07:41.080Z,4.70
2022-07-28T20:10:10.314Z,5.40
2022-07-28T20:12:38.083Z,4.85
2022-07-28T20:15:06.018Z,4.20
2022-07-28T20:17:38.917Z,4.10
2022-07-28T20:20:08.585Z,4.35
2022-07-28T20:22:36.201Z,3.83
2022-07-28T20:25:03.924Z,4.03
2022-07-28T20:27:32.784Z,4.38
2022-07-28T20:30:09.616Z,4.18
2022-07-28T20:32:37.796Z,3.47
2022-07-28T20:35:06.327Z,4.22
2022-07-28T20:37:37.313Z,4.15
2022-07-28T20:40:06.955Z,4.18
2022-07-28T20:42:36.690Z,4.85
2022-07-28T20:45:05.304Z,4.70
2022-07-28T20:47:33.272Z,5.75
2022-07-28T20:50:00.901Z,5.50
2022-07-28T20:52:28.592Z,7.10
2022-07-28T20:54:56.142Z,8.23
2022-07-28T20:57:23.891Z,10.55
2022-07-28T20:59:52.846Z,12.95
2022-07-28T21:02:21.384Z,9.48
2022-07-28T21:04:50.487Z,10.48
2022-07-28T21:08:05.093Z,11.93
2022-07-28T21:10:07.580Z,8.40
2022-07-28T21:12:36.942Z,14.10
2022-07-28T21:15:07.207Z,19.25
2022-07-28T21:17:35.297Z,15.13
2022-07-28T21:20:02.981Z,17.33
2022-07-28T21:22:30.784Z,20.65
2022-07-28T21:24:59.045Z,14.68
2022-07-28T21:27:26.571Z,20.27
2022-07-28T21:32:20.939Z,19.58
2022-07-28T21:34:48.566Z,17.20
2022-07-28T21:37:16.106Z,17.77
2022-07-28T21:39:44.202Z,9.00
2022-07-28T21:42:11.726Z,9.75
2022-07-28T21:44:39.245Z,13.63
2022-07-28T21:47:07.005Z,11.52
2022-07-28T21:49:35.876Z,14.02
2022-07-28T21:52:03.425Z,13.52
2022-07-28T21:54:31.018Z,15.50
2022-07-28T21:56:58.730Z,12.32
2022-07-28T21:59:26.347Z,11.15
2022-07-28T22:01:53.913Z,14.38
2022-07-28T22:04:21.874Z,11.55
2022-07-28T22:06:50.990Z,11.73
2022-07-28T22:09:18.493Z,11.10
2022-07-28T22:11:46.172Z,14.70
2022-07-28T22:14:14.065Z,10.60
2022-07-28T22:16:41.853Z,13.23
2022-07-28T22:19:11.760Z,10.60
2022-07-28T22:21:39.356Z,9.68
2022-07-28T22:24:09.719Z,9.45
2022-07-28T22:26:37.301Z,11.85
2022-07-28T22:29:04.820Z,6.05
2022-07-28T22:31:32.402Z,8.02
2022-07-28T22:33:59.969Z,7.57
2022-07-28T22:36:27.597Z,11.05
2022-07-28T22:38:55.524Z,15.68
2022-07-28T22:41:24.586Z,17.02
2022-07-28T22:43:52.233Z,15.35
2022-07-28T22:46:19.843Z,17.50
2022-07-28T22:48:47.544Z,17.38
2022-07-28T22:51:16.079Z,15.73
2022-07-28T22:53:43.572Z,15.35
2022-07-28T22:56:11.839Z,14.40
2022-07-28T22:58:41.010Z,15.10
2022-07-28T23:01:08.612Z,11.25
2022-07-28T23:03:36.753Z,7.07
2022-07-28T23:06:05.871Z,12.88
2022-07-28T23:08:33.489Z,10.45
2022-07-28T23:11:01.021Z,12.77
2022-07-28T23:13:28.612Z,14.07
2022-07-28T23:15:57.523Z,17.52
2022-07-28T23:18:25.056Z,14.23
2022-07-28T23:20:52.720Z,17.73
2022-07-28T23:23:21.147Z,14.02
2022-07-28T23:25:48.700Z,13.07
2022-07-28T23:28:16.266Z,8.55
2022-07-28T23:30:45.413Z,9.77
2022-07-28T23:33:15.629Z,8.32
2022-07-28T23:36:01.831Z,13.18
2022-07-28T23:38:29.370Z,15.60
2022-07-28T23:40:56.858Z,15.32
2022-07-28T23:43:24.350Z,13.98
2022-07-28T23:45:51.874Z,12.63
2022-07-28T23:48:20.712Z,12.65
2022-07-28T23:50:48.255Z,7.90
2022-07-28T23:53:15.757Z,8.35
2022-07-28T23:55:45.085Z,8.68
2022-07-28T23:58:12.580Z,16.10
